Vancouver, Canada
Current Conditions -  °F | °C
As of 9:00 AM on Thursday 30 Oct 2014 (Local Time) from CYVR Reporting Station
Overcast Overcast  
Wind Chill: 54°   Ceiling: 5500
Heat Index: 54°   Visibility: 15mi
Dew Point: 48°   Wind: 12mph
Humidity: 82%   Direction: 70°ENE
Pressure: 29.82"   Gusts: NA
Location:  49.26°N, 123.11°W
Report Text: CYVR 301600Z 07010KT 15SM FEW040 BKN055 OVC088 12/09 A2982 RMK SC1SC4AC3 SLP098
Loading
Personal Weather Stations






























Interactive Weather Map New forecast layout! Learn more

10-Day Weather Forecast

Advertisements
Track Severe Weather on mobile